| time (UTC) | temp F | wind direction | speed knots | gust knots | rain 1hr in | rain 24hr in | rain mn in | humidity % | barometer mb |
| 20260506060320 | 61 | 242 | 0.0 | 0.0 | 0.00 | 0.00 | 0.00 | 65 | 914.2 |
| 20260506050215 | 65 | 187 | 0.0 | 4.3 | 0.00 | 0.00 | 0.00 | 59 | 913.1 |
| 20260506044734 | 66 | 230 | 0.0 | 2.6 | 0.00 | 0.00 | 0.00 | 58 | 913.1 |
| 20260506043145 | 67 | 210 | 0.9 | 4.3 | 0.00 | 0.00 | 0.00 | 58 | 912.9 |
| 20260506041656 | 68 | 226 | 0.0 | 6.1 | 0.00 | 0.00 | 0.00 | 57 | 912.9 |
| 20260506040144 | 68 | 218 | 0.0 | 3.5 | 0.00 | 0.00 | 0.00 | 56 | 912.5 |
| 20260506034625 | 68 | 232 | 0.0 | 0.0 | 0.00 | 0.00 | 0.00 | 52 | 912.3 |
| 20260506033057 | 69 | 62 | 0.0 | 0.0 | 0.00 | 0.00 | 0.00 | 48 | 912.1 |
| 20260506031518 | 70 | 0 | 0.0 | 0.0 | 0.00 | 0.00 | 0.00 | 46 | 911.9 |
| 20260506025936 | 71 | 0 | 0.0 | 0.0 | 0.00 | 0.00 | 0.00 | 44 | 911.8 |
| 20260506024426 | 73 | 223 | 0.0 | 0.0 | 0.00 | 0.00 | 0.00 | 43 | 911.7 |
| 20260506023005 | 74 | 78 | 0.0 | 0.0 | 0.00 | 0.00 | 0.00 | 41 | 911.6 |
| 20260506021434 | 75 | 70 | 0.0 | 2.6 | 0.00 | 0.00 | 0.00 | 39 | 911.6 |
| 20260506015906 | 75 | 144 | 0.0 | 3.5 | 0.00 | 0.00 | 0.00 | 39 | 911.5 |
| 20260506014356 | 76 | 178 | 0.0 | 2.6 | 0.00 | 0.00 | 0.00 | 38 | 911.5 |
| 20260506012815 | 76 | 65 | 0.0 | 2.6 | 0.00 | 0.00 | 0.00 | 36 | 911.4 |
| 20260506011246 | 76 | 39 | 0.9 | 4.3 | 0.00 | 0.00 | 0.00 | 36 | 911.2 |
| 20260506005800 | 77 | 21 | 0.9 | 5.2 | 0.00 | 0.00 | 0.00 | 35 | 911.2 |
| 20260506004246 | 77 | 76 | 0.9 | 2.6 | 0.00 | 0.00 | 0.00 | 35 | 911.1 |
| 20260506002707 | 78 | 43 | 0.9 | 8.7 | 0.00 | 0.00 | 0.00 | 34 | 911.1 |
| 20260506001220 | 78 | 296 | 2.6 | 8.7 | 0.00 | 0.00 | 0.00 | 34 | 911.1 |
| 20260505235744 | 79 | 72 | 1.7 | 7.0 | 0.00 | 0.00 | 0.00 | 33 | 911.0 |
| 20260505234237 | 80 | 54 | 2.6 | 7.8 | 0.00 | 0.00 | 0.00 | 32 | 911.1 |
| 20260505232805 | 80 | 19 | 1.7 | 9.6 | 0.00 | 0.00 | 0.00 | 31 | 911.1 |
| 20260505231317 | 80 | 62 | 2.6 | 9.6 | 0.00 | 0.00 | 0.00 | 31 | 911.1 |
| 20260505225759 | 80 | 66 | 1.7 | 8.7 | 0.00 | 0.00 | 0.00 | 31 | 911.1 |
| 20260505224304 | 81 | 42 | 2.6 | 10.4 | 0.00 | 0.00 | 0.00 | 31 | 911.1 |
| 20260505222721 | 81 | 20 | 2.6 | 9.6 | 0.00 | 0.00 | 0.00 | 30 | 911.2 |
| 20260505221206 | 81 | 84 | 2.6 | 7.8 | 0.00 | 0.00 | 0.00 | 30 | 911.2 |
| 20260505215631 | 82 | 85 | 2.6 | 8.7 | 0.00 | 0.00 | 0.00 | 29 | 911.4 |
| 20260505214139 | 81 | 22 | 2.6 | 8.7 | 0.00 | 0.00 | 0.00 | 30 | 911.4 |
| 20260505212621 | 80 | 209 | 2.6 | 7.8 | 0.00 | 0.00 | 0.00 | 28 | 911.5 |
| 20260505211107 | 80 | 35 | 1.7 | 7.0 | 0.00 | 0.00 | 0.00 | 29 | 911.5 |
| 20260505205534 | 80 | 42 | 2.6 | 11.3 | 0.00 | 0.00 | 0.00 | 31 | 911.6 |
| 20260505204053 | 79 | 321 | 2.6 | 11.3 | 0.00 | 0.00 | 0.00 | 31 | 911.7 |
| 20260505202625 | 79 | 62 | 2.6 | 7.8 | 0.00 | 0.00 | 0.00 | 34 | 911.7 |
| 20260505201138 | 78 | 68 | 2.6 | 8.7 | 0.00 | 0.00 | 0.00 | 36 | 911.8 |
| 20260505195629 | 78 | 50 | 2.6 | 8.7 | 0.00 | 0.00 | 0.00 | 36 | 911.9 |
| 20260505194139 | 78 | 68 | 2.6 | 7.8 | 0.00 | 0.00 | 0.00 | 37 | 911.9 |
| 20260505192600 | 78 | 76 | 1.7 | 7.0 | 0.00 | 0.00 | 0.00 | 36 | 911.9 |
| 20260505191113 | 77 | 72 | 1.7 | 7.0 | 0.00 | 0.00 | 0.00 | 35 | 912.0 |
| 20260505185530 | 76 | 55 | 1.7 | 6.1 | 0.00 | 0.00 | 0.00 | 37 | 912.0 |
| 20260505184019 | 75 | 36 | 0.9 | 4.3 | 0.00 | 0.00 | 0.00 | 39 | 912.1 |
| 20260505182435 | 74 | 62 | 1.7 | 4.3 | 0.00 | 0.00 | 0.00 | 40 | 912.0 |
| 20260505180904 | 72 | 31 | 0.9 | 5.2 | 0.00 | 0.00 | 0.00 | 42 | 912.1 |
| 20260505175356 | 72 | 100 | 0.9 | 5.2 | 0.00 | 0.00 | 0.00 | 42 | 912.1 |
| 20260505173930 | 72 | 91 | 1.7 | 5.2 | 0.00 | 0.00 | 0.00 | 42 | 912.2 |
| 20260505172452 | 70 | 159 | 0.9 | 3.5 | 0.00 | 0.00 | 0.00 | 45 | 912.1 |
| 20260505170925 | 69 | 355 | 0.9 | 5.2 | 0.00 | 0.00 | 0.00 | 47 | 912.1 |
| 20260505165417 | 68 | 23 | 0.9 | 5.2 | 0.00 | 0.00 | 0.00 | 50 | 912.4 |
| 20260505163903 | 67 | 57 | 0.0 | 5.2 | 0.00 | 0.00 | 0.00 | 51 | 912.3 |
| 20260505162355 | 66 | 338 | 0.0 | 4.3 | 0.00 | 0.00 | 0.00 | 53 | 912.3 |
| 20260505160924 | 65 | 334 | 0.0 | 1.7 | 0.00 | 0.00 | 0.00 | 54 | 912.6 |
| 20260505152335 | 61 | 67 | 0.0 | 0.9 | 0.00 | 0.00 | 0.00 | 61 | 912.7 |
| 20260505150848 | 59 | 22 | 0.0 | 2.6 | 0.00 | 0.00 | 0.00 | 65 | 912.5 |
| 20260505123850 | 39 | 221 | 0.0 | 0.0 | 0.00 | 0.00 | 0.00 | 89 | 911.0 |
| 20260505122357 | 40 | 221 | 0.0 | 0.0 | 0.00 | 0.00 | 0.00 | 90 | 911.0 |
| 20260505120819 | 40 | 221 | 0.0 | 0.0 | 0.00 | 0.00 | 0.00 | 85 | 910.8 |
| 20260505115232 | 40 | 221 | 0.0 | 0.0 | 0.00 | 0.00 | 0.00 | 87 | 910.9 |
| 20260505113709 | 39 | 221 | 0.0 | 0.0 | 0.00 | 0.00 | 0.00 | 85 | 911.0 |
| 20260505112207 | 40 | 221 | 0.0 | 0.0 | 0.00 | 0.00 | 0.00 | 86 | 910.9 |
| 20260505110729 | 40 | 221 | 0.0 | 0.0 | 0.00 | 0.00 | 0.00 | 87 | 910.9 |
| 20260505100746 | 42 | 221 | 0.0 | 0.0 | 0.00 | 0.00 | 0.00 | 82 | 910.5 |
| 20260505095323 | 42 | 221 | 0.0 | 0.0 | 0.00 | 0.00 | 0.00 | 79 | 910.7 |
| 20260505093848 | 43 | 221 | 0.0 | 0.0 | 0.00 | 0.00 | 0.00 | 81 | 910.6 |
| 20260505092316 | 43 | 221 | 0.0 | 0.0 | 0.00 | 0.00 | 0.00 | 82 | 910.6 |
| 20260505090851 | 44 | 221 | 0.0 | 0.0 | 0.00 | 0.00 | 0.00 | 81 | 910.4 |
| 20260505085419 | 44 | 221 | 0.0 | 0.0 | 0.00 | 0.00 | 0.00 | 79 | 910.4 |
| 20260505083924 | 44 | 221 | 0.0 | 0.0 | 0.00 | 0.00 | 0.00 | 76 | 910.5 |
| 20260505082407 | 45 | 221 | 0.0 | 0.0 | 0.00 | 0.00 | 0.00 | 76 | 910.5 |
| 20260505080935 | 45 | 221 | 0.0 | 0.0 | 0.00 | 0.00 | 0.00 | 75 | 910.5 |
| 20260505075355 | 46 | 221 | 0.0 | 0.0 | 0.00 | 0.00 | 0.00 | 76 | 910.5 |
| 20260505073824 | 46 | 221 | 0.0 | 0.0 | 0.00 | 0.00 | 0.00 | 75 | 910.4 |
| 20260505072305 | 46 | 221 | 0.0 | 0.0 | 0.00 | 0.00 | 0.00 | 74 | 910.4 |
| 20260505070834 | 46 | 221 | 0.0 | 0.0 | 0.00 | 0.00 | 0.00 | 71 | 910.3 |
| 20260505065258 | 47 | 234 | 0.0 | 0.0 | 0.00 | 0.00 | 0.00 | 68 | 910.2 |
| 20260505063725 | 48 | 226 | 0.0 | 0.0 | 0.00 | 0.00 | 0.00 | 69 | 910.3 |
| 20260505062215 | 49 | 221 | 0.0 | 0.0 | 0.00 | 0.00 | 0.00 | 64 | 910.1 |
| 20260505060639 | 50 | 221 | 0.0 | 0.0 | 0.00 | 0.00 | 0.00 | 68 | 910.0 |